createdAt,value
2023-04-21T00:02:13.203Z,89.82
2023-04-21T00:07:16.615Z,90.20
2023-04-21T00:12:18.281Z,91.46
2023-04-21T00:17:20.349Z,92.44
2023-04-21T00:22:23.459Z,93.06
2023-04-21T00:27:25.653Z,91.68
2023-04-21T00:32:27.811Z,89.91
2023-04-21T00:37:31.389Z,89.67
2023-04-21T00:42:33.430Z,90.25
2023-04-21T00:47:35.680Z,90.55
2023-04-21T00:52:39.740Z,89.65
2023-04-21T00:57:42.131Z,89.29
2023-04-21T01:02:44.585Z,88.14
2023-04-21T01:07:48.398Z,88.56
2023-04-21T01:12:50.767Z,88.08
2023-04-21T01:17:54.567Z,86.34
2023-04-21T01:22:57.954Z,86.98
2023-04-21T01:28:00.008Z,87.67
2023-04-21T01:33:02.246Z,88.33
2023-04-21T01:38:05.921Z,86.87
2023-04-21T01:43:08.368Z,85.35
2023-04-21T01:48:10.570Z,85.28
2023-04-21T01:53:14.188Z,85.35
2023-04-21T01:58:16.356Z,85.20
2023-04-21T02:03:19.128Z,85.83
2023-04-21T02:08:22.521Z,85.88
2023-04-21T02:13:24.187Z,86.36
2023-04-21T02:18:26.239Z,86.79
2023-04-21T02:23:29.252Z,86.90
2023-04-21T02:28:30.967Z,86.97
2023-04-21T02:33:32.744Z,86.96
2023-04-21T02:38:35.817Z,87.66
2023-04-21T02:43:37.988Z,87.01
2023-04-21T02:48:39.985Z,86.32
2023-04-21T02:53:43.425Z,86.79
2023-04-21T02:58:45.557Z,86.00
2023-04-21T03:03:47.897Z,86.17
2023-04-21T03:08:51.521Z,85.76
2023-04-21T03:13:53.588Z,86.32
2023-04-21T03:18:55.602Z,86.79
2023-04-21T03:23:58.884Z,84.56
2023-04-21T03:29:01.045Z,84.49
2023-04-21T03:34:03.173Z,85.07
2023-04-21T03:39:19.227Z,84.83
2023-04-21T03:44:25.373Z,84.59
2023-04-21T03:49:27.597Z,85.00
2023-04-21T03:54:31.052Z,86.52
2023-04-21T03:59:33.240Z,85.63
2023-04-21T04:04:35.654Z,85.39
2023-04-21T04:09:39.201Z,85.21
2023-04-21T04:14:41.246Z,85.59
2023-04-21T04:19:43.271Z,85.79
2023-04-21T04:24:46.707Z,84.72
2023-04-21T04:29:48.431Z,84.15
2023-04-21T04:34:50.474Z,83.94
2023-04-21T04:39:54.879Z,84.01
2023-04-21T04:44:57.002Z,83.78
2023-04-21T04:49:58.674Z,83.05
2023-04-21T04:55:01.830Z,82.18
2023-04-21T05:00:04.344Z,81.87
2023-04-21T05:05:07.432Z,81.69
2023-04-21T05:10:11.642Z,78.53
2023-04-21T05:15:13.620Z,73.55
2023-04-21T05:20:15.352Z,67.48
2023-04-21T05:25:18.379Z,65.76
2023-04-21T05:30:20.754Z,64.82
2023-04-21T05:35:22.407Z,64.25
2023-04-21T05:40:25.832Z,62.75
2023-04-21T05:45:27.836Z,61.08
2023-04-21T05:50:29.549Z,61.51
2023-04-21T05:55:34.306Z,58.43
2023-04-21T06:00:36.007Z,54.87
2023-04-21T06:05:38.644Z,54.05
2023-04-21T06:10:41.792Z,57.00
2023-04-21T06:15:44.162Z,59.06
2023-04-21T06:20:50.741Z,61.82
2023-04-21T06:26:05.748Z,64.73
2023-04-21T06:31:08.960Z,65.38
2023-04-21T06:36:11.197Z,65.93
2023-04-21T06:41:14.734Z,66.33
2023-04-21T06:46:16.846Z,64.75
2023-04-21T06:51:18.744Z,64.70
2023-04-21T06:56:22.319Z,64.30
2023-04-21T07:01:24.077Z,63.42
2023-04-21T07:06:27.212Z,63.53
2023-04-21T07:11:30.693Z,62.04
2023-04-21T07:16:33.415Z,61.60
2023-04-21T07:21:35.469Z,61.72
2023-04-21T07:26:38.907Z,62.12
2023-04-21T07:31:41.112Z,61.94
2023-04-21T07:36:43.338Z,58.97
2023-04-21T07:41:47.071Z,59.77
2023-04-21T07:46:49.149Z,58.85
2023-04-21T07:51:52.377Z,58.38
2023-04-21T07:56:55.806Z,59.68
2023-04-21T08:01:58.340Z,57.07
2023-04-21T08:07:00.834Z,55.77
2023-04-21T08:12:04.891Z,55.64
2023-04-21T08:22:27.390Z,55.40
2023-04-21T08:27:30.770Z,53.50
2023-04-21T08:32:32.878Z,54.61
2023-04-21T08:37:37.032Z,53.57
2023-04-21T08:42:40.301Z,51.48
2023-04-21T08:47:43.203Z,49.80
2023-04-21T08:52:45.398Z,50.37
2023-04-21T08:57:49.019Z,49.07
2023-04-21T09:03:00.688Z,48.98
2023-04-21T09:08:11.579Z,42.44
2023-04-21T09:13:16.250Z,39.51
2023-04-21T09:18:20.055Z,37.73
2023-04-21T09:23:22.145Z,38.08
2023-04-21T09:28:31.706Z,33.02
2023-04-21T09:38:36.592Z,34.01
2023-04-21T09:43:40.132Z,30.77
2023-04-21T09:48:44.658Z,31.08
2023-04-21T09:53:50.282Z,30.92
2023-04-21T09:58:54.882Z,31.08
2023-04-21T10:03:57.970Z,29.87
2023-04-21T10:09:01.303Z,31.46
2023-04-21T10:14:05.286Z,30.23
2023-04-21T10:19:25.210Z,28.84
2023-04-21T10:24:28.839Z,29.84
2023-04-21T10:29:48.025Z,30.28
2023-04-21T10:34:56.879Z,30.80
2023-04-21T10:39:59.153Z,30.05
2023-04-21T10:45:07.707Z,29.04
2023-04-21T10:50:21.167Z,30.22
2023-04-21T10:55:26.764Z,32.44
2023-04-21T11:00:30.204Z,31.08
2023-04-21T11:05:35.762Z,32.19
2023-04-21T11:10:46.757Z,34.28
2023-04-21T11:16:05.594Z,32.97
2023-04-21T11:21:13.130Z,32.94
2023-04-21T11:26:15.003Z,33.93
2023-04-21T11:31:18.610Z,33.89
2023-04-21T11:36:22.226Z,34.44
2023-04-21T11:41:24.743Z,32.40
2023-04-21T11:46:28.949Z,31.41
2023-04-21T11:51:34.485Z,31.42
2023-04-21T11:56:37.883Z,32.64
2023-04-21T12:01:45.786Z,31.38
2023-04-21T12:06:55.105Z,30.00
2023-04-21T12:12:00.191Z,31.58
2023-04-21T12:17:06.994Z,32.75
2023-04-21T12:22:09.856Z,32.23
2023-04-21T12:27:13.012Z,33.63
2023-04-21T12:32:16.640Z,32.77
2023-04-21T12:37:19.302Z,35.83
2023-04-21T12:42:21.465Z,35.77
2023-04-21T12:47:25.062Z,37.74
2023-04-21T12:52:27.409Z,35.56
2023-04-21T12:57:29.516Z,35.20
2023-04-21T13:02:33.119Z,35.77
2023-04-21T13:07:35.372Z,36.47
2023-04-21T13:12:37.898Z,36.71
2023-04-21T13:17:41.375Z,36.92
2023-04-21T13:22:43.279Z,37.17
2023-04-21T13:27:45.247Z,37.39
2023-04-21T13:32:49.934Z,35.62
2023-04-21T13:37:52.315Z,37.01
2023-04-21T13:42:54.547Z,34.75
2023-04-21T13:47:57.962Z,34.36
2023-04-21T13:53:00.029Z,33.78
2023-04-21T13:58:02.193Z,35.13
2023-04-21T14:03:05.900Z,35.42
2023-04-21T14:08:08.408Z,33.02
2023-04-21T14:13:15.104Z,31.85
2023-04-21T14:18:31.048Z,29.10
2023-04-21T14:23:33.255Z,30.07
2023-04-21T14:28:35.226Z,28.77
2023-04-21T14:33:38.429Z,29.29
2023-04-21T14:38:40.185Z,29.25
2023-04-21T14:43:42.287Z,29.28
2023-04-21T14:48:46.486Z,30.43
2023-04-21T14:53:50.452Z,29.94
2023-04-21T14:58:52.578Z,29.71
2023-04-21T15:03:56.485Z,30.38
2023-04-21T15:08:59.088Z,29.78
2023-04-21T15:14:01.432Z,29.89
2023-04-21T15:19:04.888Z,30.20
2023-04-21T15:24:07.056Z,29.47
2023-04-21T15:29:08.761Z,33.04
2023-04-21T15:34:12.135Z,32.18
2023-04-21T15:39:14.325Z,31.19
2023-04-21T15:44:16.774Z,30.75
2023-04-21T15:49:20.209Z,29.62
2023-04-21T15:54:22.241Z,30.24
2023-04-21T15:59:25.879Z,29.82
2023-04-21T16:04:29.428Z,30.96
2023-04-21T16:09:32.254Z,31.54
2023-04-21T16:14:46.667Z,31.27
2023-04-21T16:19:55.238Z,31.74
2023-04-21T16:24:57.488Z,31.49
2023-04-21T16:30:00.206Z,31.37
2023-04-21T16:35:04.658Z,31.46
2023-04-21T16:40:08.194Z,32.01
2023-04-21T16:45:10.590Z,33.03
2023-04-21T16:50:13.753Z,32.66
2023-04-21T16:55:15.465Z,33.69
2023-04-21T17:00:28.280Z,33.89
2023-04-21T17:05:32.559Z,34.02
2023-04-21T17:10:35.522Z,35.46
2023-04-21T17:15:40.116Z,36.83
2023-04-21T17:20:45.533Z,39.14
2023-04-21T17:25:47.878Z,38.63
2023-04-21T17:30:51.779Z,39.52
2023-04-21T17:36:03.440Z,39.82
2023-04-21T17:41:05.875Z,40.54
2023-04-21T17:46:08.180Z,41.03
2023-04-21T17:51:11.906Z,42.46
2023-04-21T17:56:14.059Z,42.50
2023-04-21T18:01:16.145Z,42.55
2023-04-21T18:06:19.765Z,42.88
2023-04-21T18:11:21.972Z,43.38
2023-04-21T18:16:24.327Z,42.19
2023-04-21T18:21:27.680Z,43.49
2023-04-21T18:26:29.405Z,44.66
2023-04-21T18:31:31.203Z,44.29
2023-04-21T18:36:37.026Z,44.29
2023-04-21T18:41:40.379Z,45.06
2023-04-21T18:46:42.498Z,45.77
2023-04-21T18:51:45.657Z,46.34
2023-04-21T18:56:47.453Z,46.39
2023-04-21T19:01:50.008Z,46.53
2023-04-21T19:06:53.549Z,46.45
2023-04-21T19:11:56.358Z,46.70
2023-04-21T19:16:58.490Z,46.48
2023-04-21T19:22:01.710Z,46.61
2023-04-21T19:27:03.525Z,46.10
2023-04-21T19:32:05.593Z,46.49
2023-04-21T19:37:09.064Z,46.60
2023-04-21T19:42:10.811Z,46.61
2023-04-21T19:47:12.991Z,46.87
2023-04-21T19:52:16.105Z,46.51
2023-04-21T19:57:17.877Z,47.14
2023-04-21T20:02:19.690Z,47.62
2023-04-21T20:07:23.366Z,47.77
2023-04-21T20:12:25.561Z,47.67
2023-04-21T20:17:27.749Z,48.55
2023-04-21T20:22:31.368Z,49.17
2023-04-21T20:27:33.811Z,49.09
2023-04-21T20:32:35.546Z,50.66
2023-04-21T20:37:38.807Z,50.29
2023-04-21T20:42:41.327Z,50.49
2023-04-21T20:47:43.112Z,51.19
2023-04-21T20:52:46.615Z,51.35
2023-04-21T20:57:48.363Z,51.46
2023-04-21T21:02:50.675Z,51.48
2023-04-21T21:07:54.582Z,51.43
2023-04-21T21:12:56.459Z,52.50
2023-04-21T21:17:58.922Z,52.69
2023-04-21T21:23:02.375Z,52.57
2023-04-21T21:28:04.640Z,53.17
2023-04-21T21:33:06.675Z,53.68
2023-04-21T21:38:10.581Z,53.88
2023-04-21T21:43:12.720Z,54.13
2023-04-21T21:48:14.587Z,54.42
2023-04-21T21:53:18.181Z,55.03
2023-04-21T21:58:20.811Z,55.72
2023-04-21T22:03:23.000Z,56.58
2023-04-21T22:08:26.769Z,55.59
2023-04-21T22:13:29.005Z,56.63
2023-04-21T22:18:31.402Z,58.69
2023-04-21T22:23:35.108Z,57.39
2023-04-21T22:28:37.163Z,57.44
2023-04-21T22:33:39.078Z,57.58
2023-04-21T22:38:42.182Z,57.75
2023-04-21T22:43:44.168Z,58.07
2023-04-21T22:48:46.350Z,58.68
2023-04-21T22:53:49.845Z,59.84
2023-04-21T22:58:52.010Z,59.58
2023-04-21T23:03:54.235Z,59.87
2023-04-21T23:08:57.286Z,60.87
2023-04-21T23:13:59.391Z,60.55
2023-04-21T23:19:01.879Z,61.74
2023-04-21T23:24:05.875Z,62.55
2023-04-21T23:29:07.970Z,63.09
2023-04-21T23:34:10.068Z,64.94
2023-04-21T23:39:13.538Z,65.79
2023-04-21T23:44:15.874Z,66.22
2023-04-21T23:49:17.571Z,65.62
2023-04-21T23:54:20.860Z,66.01
2023-04-21T23:59:22.560Z,64.96
